Time;durP1;ratioP1;P1;durP2;ratioP2;P2;SDS_P1;SDS_P2;PMS_P1;PMS_P2;Temp;Humidity;BMP_temperature;BMP_pressure;BME280_temperature;BME280_humidity;BME280_pressure;Samples;Min_cycle;Max_cycle;Signal;HPM_P1;HPM_P2
2022/10/23 00:01:15;;;;;;;28.13;3.30;;;13.10;86.20;;;;;;5015079;28;20036;-62
2022/10/23 00:03:41;;;;;;;29.52;3.15;;;13.10;86.40;;;;;;5018597;28;20117;-60
2022/10/23 00:06:07;;;;;;;32.47;3.33;;;13.20;86.30;;;;;;5014478;28;20129;-61
2022/10/23 00:08:32;;;;;;;35.17;3.30;;;13.10;86.20;;;;;;5016343;28;20038;-61
2022/10/23 00:10:58;;;;;;;14.77;2.50;;;13.10;86.20;;;;;;5012431;28;20505;-62
2022/10/23 00:13:23;;;;;;;21.88;2.63;;;13.10;86.40;;;;;;5015739;28;20521;-62
2022/10/23 00:15:49;;;;;;;9.80;2.45;;;13.20;86.40;;;;;;5016483;28;20034;-62
2022/10/23 00:18:15;;;;;;;6.80;1.90;;;13.10;86.00;;;;;;5014050;28;20051;-61
2022/10/23 00:20:40;;;;;;;7.10;2.00;;;13.10;85.90;;;;;;5016102;28;20167;-62
2022/10/23 00:23:06;;;;;;;5.85;2.03;;;13.00;85.80;;;;;;5016518;28;20337;-62
2022/10/23 00:25:32;;;;;;;5.43;2.25;;;13.00;85.90;;;;;;5017133;28;20058;-60
2022/10/23 00:27:58;;;;;;;6.57;2.30;;;12.90;86.70;;;;;;5016738;28;20032;-62
2022/10/23 00:30:23;;;;;;;20.17;2.50;;;12.90;86.00;;;;;;5013764;28;20037;-62
2022/10/23 00:32:49;;;;;;;19.10;2.50;;;12.90;87.00;;;;;;5015170;28;20479;-62
2022/10/23 00:35:15;;;;;;;31.02;2.45;;;12.80;86.20;;;;;;5014943;28;20478;-62
2022/10/23 00:37:41;;;;;;;14.07;2.03;;;12.80;86.40;;;;;;5016872;28;20029;-62
2022/10/23 00:40:07;;;;;;;35.35;2.88;;;12.80;86.30;;;;;;5015451;28;20460;-62
2022/10/23 00:42:33;;;;;;;29.42;2.10;;;12.80;86.40;;;;;;5014723;28;20485;-61
2022/10/23 00:45:19;;;;;;;5.43;2.00;;;12.70;86.50;;;;;;5017055;28;20041;-60
2022/10/23 00:47:46;;;;;;;17.92;2.42;;;12.70;86.90;;;;;;5017123;28;20076;-60
2022/10/23 00:50:12;;;;;;;5.22;2.20;;;12.70;86.80;;;;;;5014656;28;20194;-61
2022/10/23 00:52:51;;;;;;;4.90;2.13;;;12.70;86.90;;;;;;5010967;28;20030;-61
2022/10/23 00:55:19;;;;;;;2.10;1.95;;;12.70;87.10;;;;;;5015196;28;20060;-61
2022/10/23 00:57:46;;;;;;;2.17;1.83;;;12.70;87.10;;;;;;5016580;28;20037;-60
2022/10/23 01:00:19;;;;;;;10.95;2.05;;;12.70;87.00;;;;;;5014166;28;20041;-60
2022/10/23 01:02:45;;;;;;;4.32;2.10;;;12.70;86.90;;;;;;5019341;28;20124;-61
2022/10/23 01:05:10;;;;;;;5.82;1.83;;;12.70;86.60;;;;;;5016148;28;20568;-62
2022/10/23 01:07:49;;;;;;;2.47;2.00;;;12.70;86.60;;;;;;5016327;28;20030;-60
2022/10/23 01:10:21;;;;;;;3.45;1.75;;;12.80;86.70;;;;;;5016122;28;20133;-60
2022/10/23 01:12:50;;;;;;;2.22;2.00;;;12.80;86.60;;;;;;5011236;28;20136;-61
2022/10/23 01:15:29;;;;;;;5.90;1.90;;;12.80;86.30;;;;;;5013813;28;20056;-59
2022/10/23 01:18:07;;;;;;;19.88;2.20;;;12.80;86.20;;;;;;5014790;28;20033;-61
2022/10/23 01:20:46;;;;;;;5.88;1.95;;;12.80;86.20;;;;;;5013533;28;20038;-60
2022/10/23 01:23:33;;;;;;;6.53;1.75;;;12.70;86.30;;;;;;5013315;28;20034;-60
2022/10/23 01:26:19;;;;;;;1.98;1.70;;;12.70;86.40;;;;;;5015770;28;20381;-60
2022/10/23 01:29:03;;;;;;;23.45;2.67;;;12.70;86.70;;;;;;5015554;28;20048;-61
2022/10/23 01:31:44;;;;;;;41.97;2.50;;;12.60;86.60;;;;;;5014057;28;20097;-59
2022/10/23 01:34:17;;;;;;;20.02;2.38;;;12.60;86.40;;;;;;5015853;28;20042;-62
2022/10/23 01:36:49;;;;;;;18.83;2.60;;;12.60;86.20;;;;;;5015348;28;20158;-62
2022/10/23 01:39:23;;;;;;;12.85;3.25;;;12.60;86.30;;;;;;5014756;28;20061;-61
2022/10/23 01:42:02;;;;;;;7.57;2.67;;;12.50;86.50;;;;;;5015727;28;20029;-61
2022/10/23 01:44:40;;;;;;;7.68;2.50;;;12.40;86.80;;;;;;5013312;28;20033;-62
2022/10/23 01:47:09;;;;;;;15.45;2.03;;;12.40;86.80;;;;;;5015281;28;20060;-60
2022/10/23 01:49:38;;;;;;;20.27;2.90;;;12.40;86.90;;;;;;5013649;28;20041;-62
2022/10/23 01:52:07;;;;;;;4.00;2.15;;;12.40;86.60;;;;;;5008877;28;20069;-61
2022/10/23 01:54:37;;;;;;;8.57;2.30;;;12.30;86.60;;;;;;5016174;28;20048;-60
2022/10/23 01:57:06;;;;;;;4.03;2.03;;;12.30;86.70;;;;;;5014636;28;20249;-61
2022/10/23 01:59:37;;;;;;;3.40;2.03;;;12.20;86.90;;;;;;5016851;28;20579;-61
2022/10/23 02:02:05;;;;;;;2.38;1.92;;;12.20;87.10;;;;;;5014345;28;20048;-62
2022/10/23 02:04:38;;;;;;;4.35;2.10;;;12.10;87.10;;;;;;5015320;28;20103;-61
2022/10/23 02:07:04;;;;;;;6.90;1.80;;;12.10;87.30;;;;;;5014807;28;20124;-61
2022/10/23 02:09:31;;;;;;;6.05;1.88;;;12.10;87.10;;;;;;5015992;28;20121;-61
2022/10/23 02:12:20;;;;;;;2.30;2.10;;;12.00;87.10;;;;;;5018554;28;20128;-60
2022/10/23 02:14:54;;;;;;;1.80;1.70;;;12.00;87.30;;;;;;5013394;28;20041;-61
2022/10/23 02:17:49;;;;;;;3.72;1.88;;;11.90;87.40;;;;;;5014156;28;20072;-61
2022/10/23 02:20:15;;;;;;;2.10;1.90;;;11.90;87.50;;;;;;5013806;28;20461;-61
2022/10/23 02:22:47;;;;;;;2.10;2.00;;;11.90;87.20;;;;;;5009309;28;20087;-60
2022/10/23 02:25:18;;;;;;;3.65;2.05;;;11.90;87.20;;;;;;5013195;28;20044;-60
2022/10/23 02:27:55;;;;;;;5.15;2.00;;;11.90;87.20;;;;;;5012341;28;20056;-61
2022/10/23 02:30:20;;;;;;;3.55;2.25;;;11.90;87.40;;;;;;5014346;28;20030;-60
2022/10/23 02:32:50;;;;;;;2.13;1.92;;;11.90;87.40;;;;;;5011709;28;20110;-60
2022/10/23 02:35:17;;;;;;;15.45;2.30;;;11.90;87.30;;;;;;5013179;28;20040;-60
2022/10/23 02:37:50;;;;;;;5.85;1.83;;;11.90;87.20;;;;;;5012731;28;20038;-61
2022/10/23 02:40:16;;;;;;;2.92;1.73;;;12.00;87.10;;;;;;5013562;28;20041;-60
2022/10/23 02:42:53;;;;;;;1.90;1.80;;;11.90;86.90;;;;;;5012479;28;20046;-61
2022/10/23 02:45:40;;;;;;;4.20;1.88;;;11.90;87.30;;;;;;5012757;28;20038;-62
2022/10/23 02:48:21;;;;;;;14.38;2.38;;;11.90;87.50;;;;;;5011535;28;20180;-62
2022/10/23 02:51:04;;;;;;;14.85;2.10;;;11.90;87.40;;;;;;5011805;28;20044;-61
2022/10/23 02:53:36;;;;;;;31.60;2.90;;;11.90;87.30;;;;;;5016278;28;20408;-61
2022/10/23 02:56:21;;;;;;;11.30;2.20;;;12.00;87.30;;;;;;5016621;28;20029;-61
2022/10/23 02:58:55;;;;;;;15.65;2.00;;;11.90;87.30;;;;;;5015891;28;20115;-60
2022/10/23 03:01:42;;;;;;;5.15;2.13;;;11.90;87.10;;;;;;5014967;28;20034;-62
2022/10/23 03:04:09;;;;;;;2.13;1.92;;;11.90;87.20;;;;;;5018204;28;20489;-61
2022/10/23 03:06:35;;;;;;;3.13;2.00;;;11.90;87.30;;;;;;5017379;28;20136;-60
2022/10/23 03:09:07;;;;;;;1.90;1.80;;;11.90;87.70;;;;;;5015444;28;20574;-61
2022/10/23 03:11:33;;;;;;;4.28;2.00;;;11.90;87.90;;;;;;5017596;28;20033;-61
2022/10/23 03:13:59;;;;;;;6.15;2.08;;;11.90;87.70;;;;;;5014476;28;20093;-61
2022/10/23 03:16:24;;;;;;;5.75;2.00;;;11.90;87.60;;;;;;5016268;28;20059;-61
2022/10/23 03:18:50;;;;;;;2.20;2.10;;;11.90;87.50;;;;;;5016502;28;20143;-61
2022/10/23 03:21:16;;;;;;;6.88;2.20;;;11.90;87.70;;;;;;5015533;28;20488;-61
2022/10/23 03:23:41;;;;;;;2.45;2.20;;;11.90;87.80;;;;;;5016777;28;20030;-59
2022/10/23 03:26:07;;;;;;;2.42;2.22;;;11.90;87.70;;;;;;5015724;28;20042;-61
2022/10/23 03:28:34;;;;;;;6.28;2.30;;;11.90;87.80;;;;;;5016800;28;20492;-62
2022/10/23 03:31:03;;;;;;;3.72;2.03;;;11.90;87.70;;;;;;5014647;28;20044;-61
2022/10/23 03:33:30;;;;;;;3.05;2.13;;;11.90;87.60;;;;;;5016538;28;20441;-59
2022/10/23 03:35:56;;;;;;;9.45;2.30;;;12.00;87.70;;;;;;5016627;28;20120;-59
2022/10/23 03:38:22;;;;;;;4.03;2.50;;;12.00;87.70;;;;;;5015999;28;20448;-60
2022/10/23 03:40:47;;;;;;;8.45;2.55;;;12.00;87.60;;;;;;5016474;28;20131;-61
2022/10/23 03:43:13;;;;;;;2.88;2.58;;;12.00;87.60;;;;;;5014304;28;20208;-60
2022/10/23 03:45:39;;;;;;;3.67;2.40;;;11.90;87.70;;;;;;5015623;28;20218;-60
2022/10/23 03:48:05;;;;;;;2.72;2.53;;;11.90;88.00;;;;;;5014038;28;20086;-56
2022/10/23 03:50:31;;;;;;;3.00;2.70;;;12.00;88.10;;;;;;5016823;28;20392;-59
2022/10/23 03:52:57;;;;;;;3.00;2.70;;;12.00;88.10;;;;;;5016587;28;20088;-60
2022/10/23 03:55:24;;;;;;;3.88;2.60;;;12.00;88.10;;;;;;5018908;28;20026;-59
2022/10/23 03:57:50;;;;;;;3.38;3.13;;;12.10;88.00;;;;;;5017185;28;20034;-62
2022/10/23 04:00:15;;;;;;;3.10;2.80;;;12.00;87.80;;;;;;5014505;28;20600;-62
2022/10/23 04:02:41;;;;;;;3.35;2.70;;;12.00;87.80;;;;;;5016517;28;20041;-62
2022/10/23 04:05:07;;;;;;;8.23;3.00;;;12.00;87.70;;;;;;5012706;28;20046;-62
2022/10/23 04:07:32;;;;;;;3.90;2.95;;;12.00;87.80;;;;;;5017878;28;20075;-62
2022/10/23 04:09:58;;;;;;;6.25;2.78;;;12.00;87.80;;;;;;5014511;28;20528;-62
2022/10/23 04:12:23;;;;;;;6.20;2.75;;;12.00;87.80;;;;;;5017015;28;20026;-61
2022/10/23 04:14:49;;;;;;;3.30;3.05;;;12.00;88.00;;;;;;5015497;28;20034;-62
2022/10/23 04:17:15;;;;;;;3.30;2.97;;;12.00;88.10;;;;;;5014500;28;20091;-62
2022/10/23 04:19:40;;;;;;;12.15;3.15;;;11.90;88.20;;;;;;5015070;28;20037;-62
2022/10/23 04:22:06;;;;;;;91.35;4.32;;;12.00;88.20;;;;;;5014906;28;20160;-61
2022/10/23 04:24:31;;;;;;;101.30;4.60;;;12.00;88.20;;;;;;5013239;28;20038;-60
2022/10/23 04:26:57;;;;;;;4.90;3.08;;;12.00;88.00;;;;;;5015382;28;20034;-61
2022/10/23 04:29:23;;;;;;;32.67;3.10;;;12.00;87.90;;;;;;5015685;28;20611;-60
2022/10/23 04:31:50;;;;;;;96.57;4.40;;;12.00;88.00;;;;;;5014937;28;20408;-61
2022/10/23 04:34:16;;;;;;;91.82;4.35;;;12.00;87.80;;;;;;5012701;28;20057;-61
2022/10/23 04:36:42;;;;;;;76.15;3.28;;;12.00;87.60;;;;;;5013326;28;20133;-60
2022/10/23 04:39:08;;;;;;;74.15;4.03;;;11.90;87.60;;;;;;5012494;28;20048;-59
2022/10/23 04:41:34;;;;;;;206.40;6.05;;;11.90;87.40;;;;;;5013598;28;20092;-61
2022/10/23 04:43:59;;;;;;;102.90;4.85;;;11.90;87.60;;;;;;5013066;28;20041;-60
2022/10/23 04:46:25;;;;;;;89.00;4.43;;;11.80;87.50;;;;;;5013653;28;20029;-62
2022/10/23 04:48:50;;;;;;;77.88;3.63;;;11.80;87.70;;;;;;5012937;28;20429;-59
2022/10/23 04:51:16;;;;;;;3.25;2.78;;;11.80;88.70;;;;;;5011800;28;20068;-61
2022/10/23 04:53:41;;;;;;;70.55;4.05;;;11.70;88.00;;;;;;5016706;28;20037;-62
2022/10/23 04:56:11;;;;;;;24.25;2.67;;;11.70;88.30;;;;;;5013751;28;20504;-61
2022/10/23 04:58:37;;;;;;;115.82;3.97;;;11.60;88.50;;;;;;5012207;28;20083;-61
2022/10/23 05:01:02;;;;;;;48.53;2.75;;;11.60;88.50;;;;;;5012534;28;20026;-60
2022/10/23 05:03:28;;;;;;;33.17;2.38;;;11.60;88.50;;;;;;5014290;28;20056;-61
2022/10/23 05:05:55;;;;;;;3.22;1.80;;;11.60;89.50;;;;;;5014358;28;20425;-61
2022/10/23 05:08:22;;;;;;;54.88;3.28;;;11.60;88.70;;;;;;5012299;28;20029;-61
2022/10/23 05:10:48;;;;;;;6.43;1.83;;;11.60;88.60;;;;;;5012152;28;20046;-62
2022/10/23 05:13:18;;;;;;;23.30;2.55;;;11.60;88.50;;;;;;5011787;28;20669;-61
2022/10/23 05:15:49;;;;;;;15.23;2.10;;;11.60;88.60;;;;;;5012499;28;20091;-61
2022/10/23 05:18:17;;;;;;;2.40;2.20;;;11.60;88.70;;;;;;5012824;28;20488;-61
2022/10/23 05:20:44;;;;;;;8.77;1.98;;;11.60;88.80;;;;;;5014200;28;20107;-61
2022/10/23 05:23:13;;;;;;;20.90;2.30;;;11.60;88.80;;;;;;5012530;28;20618;-62
2022/10/23 05:25:39;;;;;;;9.00;2.00;;;11.60;88.60;;;;;;5016326;28;20264;-62
2022/10/23 05:28:05;;;;;;;6.32;1.92;;;11.60;88.60;;;;;;5014435;28;20088;-62
2022/10/23 05:30:32;;;;;;;8.55;2.10;;;11.60;88.80;;;;;;5012734;28;20465;-61
2022/10/23 05:33:00;;;;;;;27.15;2.30;;;11.60;88.90;;;;;;5014161;28;20030;-61
2022/10/23 05:35:26;;;;;;;24.42;2.20;;;11.70;88.80;;;;;;5012757;28;20045;-60
2022/10/23 05:37:53;;;;;;;19.60;2.42;;;11.60;88.50;;;;;;5014093;28;20532;-61
2022/10/23 05:40:19;;;;;;;56.47;3.03;;;11.70;88.50;;;;;;5016099;28;20047;-61
2022/10/23 05:42:45;;;;;;;38.95;2.47;;;11.70;88.30;;;;;;5010813;28;20077;-60
2022/10/23 05:45:11;;;;;;;23.83;2.22;;;11.70;88.00;;;;;;5012303;28;20123;-59
2022/10/23 05:47:36;;;;;;;31.25;2.28;;;11.70;87.80;;;;;;5014881;28;20042;-61
2022/10/23 05:50:02;;;;;;;57.08;3.28;;;11.60;88.00;;;;;;5012708;28;20042;-60
2022/10/23 05:52:28;;;;;;;44.63;2.92;;;11.60;88.00;;;;;;5012878;28;20087;-60
2022/10/23 05:54:53;;;;;;;7.40;2.50;;;11.60;87.90;;;;;;5014555;28;20500;-61
2022/10/23 05:57:19;;;;;;;45.88;3.55;;;11.60;88.00;;;;;;5013929;28;20045;-60
2022/10/23 05:59:44;;;;;;;19.75;2.45;;;11.60;88.00;;;;;;5013982;28;20096;-60
2022/10/23 06:02:10;;;;;;;4.00;2.13;;;11.60;87.80;;;;;;5012990;28;20053;-60
2022/10/23 06:04:35;;;;;;;15.05;7.28;;;11.60;88.00;;;;;;5011639;28;20045;-60
2022/10/23 06:07:02;;;;;;;10.60;3.90;;;11.60;88.20;;;;;;5014047;28;20041;-62
2022/10/23 06:09:28;;;;;;;3.30;2.22;;;11.60;88.30;;;;;;5013438;28;20629;-60
2022/10/23 06:11:54;;;;;;;9.85;1.80;;;11.60;88.50;;;;;;5015304;28;20041;-60
2022/10/23 06:14:20;;;;;;;5.80;1.75;;;11.60;88.40;;;;;;5013016;28;20042;-60
2022/10/23 06:16:45;;;;;;;27.05;2.42;;;11.60;88.30;;;;;;5014842;28;20049;-61
2022/10/23 06:19:12;;;;;;;18.52;2.10;;;11.70;88.10;;;;;;5012887;28;20591;-60
2022/10/23 06:21:39;;;;;;;11.85;2.42;;;11.60;88.00;;;;;;5014220;28;20033;-60
2022/10/23 06:24:07;;;;;;;17.73;2.47;;;11.60;88.00;;;;;;5011636;28;20037;-60
2022/10/23 06:26:33;;;;;;;12.10;2.40;;;11.70;87.90;;;;;;5013387;28;20045;-60
2022/10/23 06:28:59;;;;;;;8.88;2.75;;;11.60;87.60;;;;;;5015456;28;20057;-58
2022/10/23 06:31:26;;;;;;;6.13;2.08;;;11.60;87.80;;;;;;5016263;28;20042;-61
2022/10/23 06:33:53;;;;;;;4.40;2.05;;;11.60;88.00;;;;;;5015977;28;20113;-61
2022/10/23 06:36:18;;;;;;;3.35;2.08;;;11.70;88.30;;;;;;5015098;28;20033;-61
2022/10/23 06:38:44;;;;;;;16.40;2.45;;;11.60;88.30;;;;;;5018021;28;20095;-61
2022/10/23 06:41:15;;;;;;;5.88;1.90;;;11.70;88.30;;;;;;5018307;28;20030;-61
2022/10/23 06:43:41;;;;;;;19.23;2.95;;;11.70;88.00;;;;;;5004447;28;20091;-62
2022/10/23 06:46:07;;;;;;;7.55;2.22;;;11.70;88.00;;;;;;5005385;28;20353;-62
2022/10/23 06:48:32;;;;;;;21.55;2.45;;;11.70;88.00;;;;;;5006700;28;20037;-61
2022/10/23 06:51:02;;;;;;;29.20;2.60;;;11.70;88.00;;;;;;5010439;28;20072;-61
2022/10/23 06:53:28;;;;;;;13.65;2.08;;;11.70;88.00;;;;;;5008506;28;20053;-60
2022/10/23 06:56:01;;;;;;;22.85;2.78;;;11.70;87.90;;;;;;5009831;28;20033;-60
2022/10/23 06:58:27;;;;;;;27.27;2.40;;;11.70;88.10;;;;;;5008313;28;20051;-60
2022/10/23 07:00:53;;;;;;;13.27;2.40;;;11.80;88.00;;;;;;5012954;28;20029;-63
2022/10/23 07:03:18;;;;;;;7.03;2.22;;;11.70;88.00;;;;;;5015749;22;20100;-59
2022/10/23 07:05:46;;;;;;;12.55;3.33;;;11.70;88.10;;;;;;5011861;28;20053;-60
2022/10/23 07:08:12;;;;;;;7.30;2.70;;;11.70;88.00;;;;;;5010482;28;20055;-60
2022/10/23 07:10:41;;;;;;;38.95;4.45;;;11.70;88.00;;;;;;5003136;28;20034;-59
2022/10/23 07:13:08;;;;;;;20.27;3.40;;;11.80;88.00;;;;;;5015928;28;20039;-60
2022/10/23 07:15:34;;;;;;;8.25;3.20;;;11.80;87.80;;;;;;5020621;28;20087;-60
2022/10/23 07:18:00;;;;;;;8.50;3.10;;;11.80;88.00;;;;;;5005847;28;20029;-60
2022/10/23 07:20:26;;;;;;;20.02;3.50;;;11.80;88.10;;;;;;5018920;28;20033;-61
2022/10/23 07:22:53;;;;;;;3.40;2.70;;;11.80;88.20;;;;;;5007245;28;20077;-59
2022/10/23 07:25:23;;;;;;;27.95;3.40;;;11.80;88.30;;;;;;5016667;28;20041;-61
2022/10/23 07:27:49;;;;;;;8.50;2.17;;;11.80;88.30;;;;;;5021300;28;20065;-61
2022/10/23 07:30:15;;;;;;;27.25;2.60;;;11.80;88.20;;;;;;5002976;28;20065;-62
2022/10/23 07:32:40;;;;;;;3.10;1.83;;;11.80;88.20;;;;;;5003392;28;20030;-62
2022/10/23 07:35:07;;;;;;;4.35;2.47;;;11.80;88.10;;;;;;5000099;28;20048;-62
2022/10/23 07:37:33;;;;;;;21.77;2.90;;;11.80;88.50;;;;;;4998788;28;20034;-62
2022/10/23 07:39:58;;;;;;;14.32;2.97;;;11.80;88.70;;;;;;5000096;28;20030;-62
2022/10/23 07:42:24;;;;;;;4.32;2.50;;;11.80;88.90;;;;;;4999297;28;20030;-61
2022/10/23 07:44:50;;;;;;;11.50;3.08;;;11.80;89.00;;;;;;5002183;28;20065;-61
2022/10/23 07:47:15;;;;;;;5.28;2.88;;;11.90;89.20;;;;;;4998693;28;20030;-61
2022/10/23 07:49:41;;;;;;;35.95;3.40;;;11.90;89.20;;;;;;5000659;28;20096;-62
2022/10/23 07:52:06;;;;;;;3.67;3.03;;;11.90;89.20;;;;;;5000201;28;20042;-62
2022/10/23 07:54:32;;;;;;;28.00;3.33;;;12.00;89.00;;;;;;5001624;28;20042;-61
2022/10/23 07:56:59;;;;;;;9.00;2.90;;;12.00;89.10;;;;;;5006077;28;20125;-62
2022/10/23 07:59:25;;;;;;;20.00;3.53;;;12.10;89.30;;;;;;4999390;28;20053;-61
2022/10/23 08:01:53;;;;;;;27.55;3.60;;;12.10;89.30;;;;;;5002133;28;20022;-62
2022/10/23 08:04:19;;;;;;;15.85;3.30;;;12.10;89.20;;;;;;4994687;28;20038;-62
2022/10/23 08:06:44;;;;;;;11.85;3.15;;;12.10;89.20;;;;;;4996791;28;20045;-61
2022/10/23 08:09:10;;;;;;;6.10;3.00;;;12.10;89.30;;;;;;4998267;28;20049;-62
2022/10/23 08:11:36;;;;;;;5.47;2.80;;;12.10;89.40;;;;;;5014574;28;20172;-59
2022/10/23 08:14:04;;;;;;;5.30;3.10;;;12.20;89.30;;;;;;5015321;28;20072;-62
2022/10/23 08:16:33;;;;;;;8.45;3.47;;;12.20;89.10;;;;;;5004472;28;20038;-62
2022/10/23 08:18:59;;;;;;;3.15;2.85;;;12.20;89.10;;;;;;5004321;28;20073;-60
2022/10/23 08:21:25;;;;;;;2.80;2.60;;;12.20;89.20;;;;;;5018099;28;20037;-61
2022/10/23 08:23:59;;;;;;;6.35;2.88;;;12.30;89.20;;;;;;5016900;28;20416;-61
2022/10/23 08:26:28;;;;;;;2.60;2.40;;;12.40;89.20;;;;;;5020566;28;20531;-62
2022/10/23 08:28:54;;;;;;;5.07;2.70;;;12.40;89.20;;;;;;5019038;28;20135;-61
2022/10/23 08:31:21;;;;;;;3.20;2.47;;;12.40;89.30;;;;;;5017239;28;20049;-60
2022/10/23 08:33:46;;;;;;;2.70;2.50;;;12.40;89.10;;;;;;5018735;28;20155;-60
2022/10/23 08:36:32;;;;;;;4.35;2.47;;;12.50;88.80;;;;;;5020444;28;20418;-61
2022/10/23 08:38:58;;;;;;;16.52;3.05;;;12.50;89.10;;;;;;5002545;28;20120;-60
2022/10/23 08:41:28;;;;;;;3.05;2.75;;;12.50;88.80;;;;;;5015298;28;20120;-61
2022/10/23 08:44:19;;;;;;;3.08;2.80;;;12.50;88.70;;;;;;5019994;28;20036;-60
2022/10/23 08:46:50;;;;;;;12.75;3.28;;;12.50;89.20;;;;;;5016400;28;20713;-62
2022/10/23 08:49:37;;;;;;;3.08;2.80;;;12.50;89.00;;;;;;4997696;28;20034;-61
2022/10/23 08:52:31;;;;;;;3.35;3.08;;;12.50;89.30;;;;;;4994892;28;20060;-60
2022/10/23 08:55:02;;;;;;;4.30;3.22;;;12.60;89.50;;;;;;4981783;28;20025;-60
2022/10/23 08:57:35;;;;;;;3.22;3.03;;;12.60;89.80;;;;;;5021490;28;20052;-61
2022/10/23 09:00:06;;;;;;;4.15;3.75;;;12.70;89.90;;;;;;5013383;28;20061;-62
2022/10/23 09:02:41;;;;;;;8.57;3.80;;;12.70;90.00;;;;;;5016537;28;20111;-61
2022/10/23 09:05:20;;;;;;;4.28;3.88;;;12.80;90.30;;;;;;5011809;28;20049;-60
2022/10/23 09:08:06;;;;;;;5.57;3.72;;;12.80;89.70;;;;;;5012083;28;20050;-60
2022/10/23 09:10:32;;;;;;;3.70;3.40;;;12.80;89.50;;;;;;4998458;28;20038;-63
2022/10/23 09:13:26;;;;;;;12.00;3.72;;;12.80;89.20;;;;;;5003317;28;20057;-62
2022/10/23 09:16:13;;;;;;;3.70;3.40;;;12.80;89.50;;;;;;5012532;28;20132;-60
2022/10/23 09:18:40;;;;;;;4.13;3.33;;;12.80;89.20;;;;;;5016119;28;20100;-62
2022/10/23 09:21:09;;;;;;;3.35;3.05;;;12.80;89.50;;;;;;5004872;28;20243;-59
2022/10/23 09:23:35;;;;;;;3.25;2.95;;;12.80;89.70;;;;;;5003342;28;20468;-60
2022/10/23 09:26:06;;;;;;;2.97;2.78;;;12.80;89.70;;;;;;5002234;28;20065;-62
2022/10/23 09:28:42;;;;;;;4.85;3.03;;;12.80;89.70;;;;;;4999637;28;20758;-62
2022/10/23 09:31:10;;;;;;;9.95;3.10;;;12.90;90.00;;;;;;4997760;28;20041;-61
2022/10/23 09:33:36;;;;;;;3.33;3.13;;;12.90;90.00;;;;;;4995408;28;20041;-63
2022/10/23 09:36:06;;;;;;;3.45;3.15;;;12.90;90.00;;;;;;4998752;28;20519;-61
2022/10/23 09:38:32;;;;;;;3.63;3.33;;;13.00;90.20;;;;;;5014795;28;20532;-61
2022/10/23 09:41:25;;;;;;;3.78;3.47;;;13.10;90.10;;;;;;4999931;28;20037;-60
2022/10/23 09:44:05;;;;;;;3.50;3.30;;;13.10;90.20;;;;;;4998923;28;20559;-62
2022/10/23 09:46:37;;;;;;;3.30;3.00;;;13.10;90.20;;;;;;5001185;28;20172;-62
2022/10/23 09:49:02;;;;;;;3.90;3.60;;;13.20;90.20;;;;;;4997887;28;20030;-63
2022/10/23 09:51:28;;;;;;;3.33;3.10;;;13.20;90.20;;;;;;4998758;28;20537;-62
2022/10/23 09:53:57;;;;;;;3.72;3.47;;;13.20;90.00;;;;;;4996901;28;20421;-62
2022/10/23 09:56:28;;;;;;;3.30;3.10;;;13.20;90.10;;;;;;4999616;28;20096;-62
2022/10/23 09:59:00;;;;;;;3.00;2.80;;;13.20;90.00;;;;;;5021291;28;20062;-60
2022/10/23 10:01:32;;;;;;;3.78;3.38;;;13.20;90.00;;;;;;5003015;28;20034;-63
2022/10/23 10:03:58;;;;;;;3.67;3.03;;;13.20;90.10;;;;;;5005008;28;20121;-62
2022/10/23 10:06:29;;;;;;;3.05;2.85;;;13.30;90.20;;;;;;5010736;28;20117;-63
2022/10/23 10:09:02;;;;;;;3.13;2.92;;;13.30;90.20;;;;;;5031118;28;20026;-61
2022/10/23 10:12:15;;;;;;;3.15;2.90;;;13.40;90.20;;;;;;5018576;28;20038;-61
2022/10/23 10:14:49;;;;;;;4.00;2.88;;;13.40;90.30;;;;;;4960808;28;20570;-62
2022/10/23 10:17:27;;;;;;;2.85;2.65;;;13.60;90.20;;;;;;5002995;28;20042;-62
2022/10/23 10:20:31;;;;;;;3.00;2.80;;;13.60;90.10;;;;;;5022813;28;20516;-60
2022/10/23 10:23:43;;;;;;;3.55;3.30;;;13.70;90.10;;;;;;5024727;28;20037;-61
2022/10/23 10:26:33;;;;;;;7.22;3.20;;;13.80;90.20;;;;;;4986382;28;20062;-60
2022/10/23 10:29:04;;;;;;;3.13;2.88;;;13.90;90.10;;;;;;5028844;28;20029;-62
2022/10/23 10:31:42;;;;;;;2.83;2.63;;;14.00;90.10;;;;;;5022041;28;20026;-62
2022/10/23 10:34:45;;;;;;;2.90;2.70;;;14.10;90.10;;;;;;5010296;28;20065;-62
2022/10/23 10:37:27;;;;;;;2.97;2.40;;;14.20;90.00;;;;;;5025689;28;20150;-62
2022/10/23 10:40:05;;;;;;;2.67;2.47;;;14.30;89.90;;;;;;5013056;28;20038;-63
2022/10/23 10:42:39;;;;;;;2.78;2.58;;;14.30;89.50;;;;;;5004170;28;20141;-62
2022/10/23 10:45:23;;;;;;;5.13;2.80;;;14.40;89.50;;;;;;5007669;28;20033;-61
2022/10/23 10:48:12;;;;;;;4.40;3.00;;;14.50;89.30;;;;;;5007038;28;20408;-62
2022/10/23 10:50:52;;;;;;;3.20;2.92;;;14.60;89.60;;;;;;5005021;28;20041;-62
2022/10/23 10:53:40;;;;;;;3.45;2.70;;;14.70;89.40;;;;;;4998735;28;20041;-61
2022/10/23 10:56:10;;;;;;;2.80;2.65;;;14.80;89.10;;;;;;5005634;28;20497;-63
2022/10/23 10:58:39;;;;;;;2.90;2.70;;;14.90;89.10;;;;;;5003937;28;20030;-62
2022/10/23 11:01:18;;;;;;;2.95;2.75;;;14.90;89.20;;;;;;5001635;28;20144;-61
2022/10/23 11:04:03;;;;;;;3.00;2.60;;;14.90;89.60;;;;;;5007809;28;20042;-62
2022/10/23 11:06:33;;;;;;;3.20;2.90;;;15.00;89.40;;;;;;5002746;28;20041;-62
2022/10/23 11:09:10;;;;;;;3.08;2.88;;;15.10;89.50;;;;;;5009243;28;20121;-61
2022/10/23 11:11:39;;;;;;;2.92;2.72;;;15.20;89.70;;;;;;5004797;28;20096;-61
2022/10/23 11:14:13;;;;;;;3.53;3.30;;;15.30;89.50;;;;;;5006732;28;20117;-62
2022/10/23 11:16:41;;;;;;;6.20;3.03;;;15.40;89.30;;;;;;5009975;28;20524;-62
2022/10/23 11:19:19;;;;;;;3.90;2.47;;;15.50;89.20;;;;;;5026136;28;20143;-62
2022/10/23 11:22:15;;;;;;;2.72;2.53;;;15.50;88.50;;;;;;5025890;28;20113;-62
2022/10/23 11:25:16;;;;;;;2.80;2.60;;;15.60;88.60;;;;;;5027611;28;20502;-62
2022/10/23 11:28:01;;;;;;;2.70;2.50;;;15.70;88.50;;;;;;5024312;28;20496;-62
2022/10/23 11:30:55;;;;;;;2.65;2.45;;;15.80;88.30;;;;;;5028144;28;20075;-62
2022/10/23 11:33:56;;;;;;;2.60;2.40;;;15.90;88.10;;;;;;5026561;28;20410;-62
2022/10/23 11:36:40;;;;;;;2.30;2.20;;;16.00;87.40;;;;;;5027586;28;20068;-61
2022/10/23 11:39:28;;;;;;;2.90;2.60;;;16.00;87.10;;;;;;5025866;28;21326;-62
2022/10/23 11:42:14;;;;;;;4.65;2.70;;;16.10;87.20;;;;;;5026155;28;20030;-63
2022/10/23 11:44:39;;;;;;;2.65;2.45;;;16.10;87.00;;;;;;5025553;28;20421;-62
2022/10/23 11:47:38;;;;;;;4.03;2.80;;;16.20;87.40;;;;;;5026652;28;20037;-63
2022/10/23 11:50:06;;;;;;;2.70;2.50;;;16.20;86.70;;;;;;5021322;28;20095;-63
2022/10/23 11:52:33;;;;;;;2.80;2.60;;;16.30;87.40;;;;;;5024288;28;20034;-60
2022/10/23 11:55:21;;;;;;;4.05;2.78;;;16.30;87.40;;;;;;5026779;28;20095;-62
2022/10/23 11:58:05;;;;;;;3.20;2.90;;;16.40;87.00;;;;;;5023755;28;20053;-62
2022/10/23 12:00:33;;;;;;;2.70;2.50;;;16.50;87.30;;;;;;5022237;28;20044;-61
2022/10/23 12:03:00;;;;;;;3.30;2.47;;;16.50;87.40;;;;;;5024829;28;20288;-63
2022/10/23 12:05:40;;;;;;;2.20;2.10;;;16.60;87.30;;;;;;5023999;28;20045;-62
2022/10/23 12:08:21;;;;;;;2.03;1.92;;;16.70;87.20;;;;;;5026411;28;20037;-62
2022/10/23 12:10:54;;;;;;;5.65;1.80;;;16.80;86.40;;;;;;5020989;28;20404;-63
2022/10/23 12:13:38;;;;;;;2.10;1.90;;;16.80;87.00;;;;;;5024195;28;20045;-61
2022/10/23 12:16:06;;;;;;;3.35;1.80;;;16.90;86.40;;;;;;5027303;28;20044;-63
2022/10/23 12:18:32;;;;;;;1.90;1.75;;;17.00;86.60;;;;;;5025816;28;20400;-63
2022/10/23 12:21:01;;;;;;;1.65;1.55;;;17.10;86.90;;;;;;5027583;28;20524;-62
2022/10/23 12:23:26;;;;;;;1.63;1.52;;;17.10;86.70;;;;;;5023487;28;20092;-63
2022/10/23 12:26:13;;;;;;;2.88;1.65;;;17.20;86.50;;;;;;5025132;28;20049;-62
2022/10/23 12:29:15;;;;;;;1.70;1.60;;;17.30;85.70;;;;;;5026809;28;20033;-63
2022/10/23 12:32:22;;;;;;;1.65;1.55;;;17.50;85.50;;;;;;5028001;28;20029;-63
2022/10/23 12:35:18;;;;;;;2.83;1.67;;;17.50;85.40;;;;;;5010284;28;20113;-62
2022/10/23 12:38:05;;;;;;;3.38;1.77;;;17.50;85.20;;;;;;5025751;28;20041;-63
2022/10/23 12:40:30;;;;;;;1.60;1.50;;;17.60;84.70;;;;;;5025347;28;20064;-62
2022/10/23 12:42:58;;;;;;;2.15;1.80;;;17.60;84.80;;;;;;5024052;28;20072;-61
2022/10/23 12:45:32;;;;;;;2.30;2.13;;;17.70;84.70;;;;;;5026409;28;20053;-61
2022/10/23 12:47:57;;;;;;;3.15;1.90;;;17.80;84.60;;;;;;5025869;28;20121;-63
2022/10/23 12:50:29;;;;;;;3.63;2.40;;;17.80;84.50;;;;;;5026661;28;20041;-63
2022/10/23 12:53:02;;;;;;;2.30;2.10;;;17.70;84.00;;;;;;5017951;28;20561;-63
2022/10/23 12:56:06;;;;;;;2.33;2.00;;;17.90;84.30;;;;;;5025274;28;20080;-62
2022/10/23 12:58:34;;;;;;;1.98;1.88;;;17.90;84.20;;;;;;4958957;28;20031;-62
2022/10/23 13:01:05;;;;;;;4.90;2.40;;;18.00;84.60;;;;;;5010086;28;20030;-61
2022/10/23 13:03:32;;;;;;;1.98;1.88;;;18.00;84.10;;;;;;5018580;28;20034;-63
2022/10/23 13:06:03;;;;;;;3.50;2.20;;;18.00;84.00;;;;;;5023195;28;20144;-61